sensor_id;sensor_type;location;lat;lon;timestamp;temperature;humidity
51021;DHT22;38907;45.562;8.856;2022-08-02T00:01:45;27.30;76.30
51021;DHT22;38907;45.562;8.856;2022-08-02T00:06:47;27.20;77.70
51021;DHT22;38907;45.562;8.856;2022-08-02T00:11:51;27.10;79.20
51021;DHT22;38907;45.562;8.856;2022-08-02T00:16:54;27.00;78.40
51021;DHT22;38907;45.562;8.856;2022-08-02T00:21:57;26.90;79.60
51021;DHT22;38907;45.562;8.856;2022-08-02T00:27:01;26.90;80.80
51021;DHT22;38907;45.562;8.856;2022-08-02T00:32:04;26.80;80.30
51021;DHT22;38907;45.562;8.856;2022-08-02T00:37:07;26.80;79.70
51021;DHT22;38907;45.562;8.856;2022-08-02T00:42:13;26.80;80.50
51021;DHT22;38907;45.562;8.856;2022-08-02T00:47:15;26.70;80.80
51021;DHT22;38907;45.562;8.856;2022-08-02T00:52:19;26.70;79.80
51021;DHT22;38907;45.562;8.856;2022-08-02T00:57:23;26.70;80.80
51021;DHT22;38907;45.562;8.856;2022-08-02T01:02:25;26.50;79.60
51021;DHT22;38907;45.562;8.856;2022-08-02T01:07:28;26.50;79.20
51021;DHT22;38907;45.562;8.856;2022-08-02T01:12:32;26.10;78.50
51021;DHT22;38907;45.562;8.856;2022-08-02T01:17:42;26.00;79.10
51021;DHT22;38907;45.562;8.856;2022-08-02T01:23:04;26.20;78.20
51021;DHT22;38907;45.562;8.856;2022-08-02T01:28:34;26.40;78.40
51021;DHT22;38907;45.562;8.856;2022-08-02T01:33:42;26.50;78.00
51021;DHT22;38907;45.562;8.856;2022-08-02T01:38:48;26.50;79.20
51021;DHT22;38907;45.562;8.856;2022-08-02T01:43:55;26.50;79.50
51021;DHT22;38907;45.562;8.856;2022-08-02T01:49:03;26.50;81.10
51021;DHT22;38907;45.562;8.856;2022-08-02T01:54:10;26.20;81.40
51021;DHT22;38907;45.562;8.856;2022-08-02T01:59:19;25.90;82.70
51021;DHT22;38907;45.562;8.856;2022-08-02T02:04:24;25.60;83.20
51021;DHT22;38907;45.562;8.856;2022-08-02T02:09:29;25.60;83.50
51021;DHT22;38907;45.562;8.856;2022-08-02T02:14:34;25.70;83.20
51021;DHT22;38907;45.562;8.856;2022-08-02T02:19:38;25.90;83.10
51021;DHT22;38907;45.562;8.856;2022-08-02T02:24:41;26.00;83.20
51021;DHT22;38907;45.562;8.856;2022-08-02T02:29:48;25.90;82.90
51021;DHT22;38907;45.562;8.856;2022-08-02T02:34:52;25.80;83.40
51021;DHT22;38907;45.562;8.856;2022-08-02T02:39:57;25.60;84.00
51021;DHT22;38907;45.562;8.856;2022-08-02T02:45:02;25.70;84.30
51021;DHT22;38907;45.562;8.856;2022-08-02T02:50:07;25.80;85.10
51021;DHT22;38907;45.562;8.856;2022-08-02T02:55:10;25.80;83.70
51021;DHT22;38907;45.562;8.856;2022-08-02T03:00:15;25.70;84.10
51021;DHT22;38907;45.562;8.856;2022-08-02T03:05:18;25.60;83.70
51021;DHT22;38907;45.562;8.856;2022-08-02T03:10:21;25.40;84.10
51021;DHT22;38907;45.562;8.856;2022-08-02T03:15:26;25.70;84.20
51021;DHT22;38907;45.562;8.856;2022-08-02T03:20:30;25.70;84.50
51021;DHT22;38907;45.562;8.856;2022-08-02T03:25:32;25.70;84.10
51021;DHT22;38907;45.562;8.856;2022-08-02T03:30:36;25.80;84.40
51021;DHT22;38907;45.562;8.856;2022-08-02T03:35:40;25.60;83.90
51021;DHT22;38907;45.562;8.856;2022-08-02T03:40:44;25.60;83.70
51021;DHT22;38907;45.562;8.856;2022-08-02T03:45:50;25.50;84.20
51021;DHT22;38907;45.562;8.856;2022-08-02T03:50:54;25.40;84.50
51021;DHT22;38907;45.562;8.856;2022-08-02T03:55:58;25.40;84.50
51021;DHT22;38907;45.562;8.856;2022-08-02T04:01:02;25.40;84.40
51021;DHT22;38907;45.562;8.856;2022-08-02T04:06:05;25.50;84.20
51021;DHT22;38907;45.562;8.856;2022-08-02T04:11:08;25.20;84.60
51021;DHT22;38907;45.562;8.856;2022-08-02T04:16:43;25.10;84.70
51021;DHT22;38907;45.562;8.856;2022-08-02T04:21:48;25.30;84.60
51021;DHT22;38907;45.562;8.856;2022-08-02T04:26:53;25.30;84.50
51021;DHT22;38907;45.562;8.856;2022-08-02T04:31:58;25.50;84.40
51021;DHT22;38907;45.562;8.856;2022-08-02T04:37:02;25.50;84.60
51021;DHT22;38907;45.562;8.856;2022-08-02T04:42:05;25.50;86.10
51021;DHT22;38907;45.562;8.856;2022-08-02T04:47:10;25.30;88.50
51021;DHT22;38907;45.562;8.856;2022-08-02T04:52:12;25.20;89.20
51021;DHT22;38907;45.562;8.856;2022-08-02T04:57:15;25.00;89.60
51021;DHT22;38907;45.562;8.856;2022-08-02T05:02:37;25.00;90.40
51021;DHT22;38907;45.562;8.856;2022-08-02T05:07:39;25.10;88.60
51021;DHT22;38907;45.562;8.856;2022-08-02T05:12:42;25.10;88.80
51021;DHT22;38907;45.562;8.856;2022-08-02T05:17:47;25.20;89.00
51021;DHT22;38907;45.562;8.856;2022-08-02T05:22:50;25.30;90.00
51021;DHT22;38907;45.562;8.856;2022-08-02T05:27:52;25.50;90.20
51021;DHT22;38907;45.562;8.856;2022-08-02T05:32:56;25.60;90.40
51021;DHT22;38907;45.562;8.856;2022-08-02T05:37:59;25.70;90.90
51021;DHT22;38907;45.562;8.856;2022-08-02T05:43:05;25.80;91.30
51021;DHT22;38907;45.562;8.856;2022-08-02T05:48:13;25.90;91.60
51021;DHT22;38907;45.562;8.856;2022-08-02T05:53:23;25.90;91.50
51021;DHT22;38907;45.562;8.856;2022-08-02T05:58:38;25.90;91.70
51021;DHT22;38907;45.562;8.856;2022-08-02T06:03:47;25.90;91.70
51021;DHT22;38907;45.562;8.856;2022-08-02T06:08:57;26.00;91.60
51021;DHT22;38907;45.562;8.856;2022-08-02T06:14:02;26.00;91.60
51021;DHT22;38907;45.562;8.856;2022-08-02T06:19:07;25.80;91.60
51021;DHT22;38907;45.562;8.856;2022-08-02T06:24:09;25.80;91.70
51021;DHT22;38907;45.562;8.856;2022-08-02T06:29:14;25.70;91.90
51021;DHT22;38907;45.562;8.856;2022-08-02T06:34:18;26.30;91.60
51021;DHT22;38907;45.562;8.856;2022-08-02T06:39:26;26.10;91.80
51021;DHT22;38907;45.562;8.856;2022-08-02T06:44:34;26.40;91.60
51021;DHT22;38907;45.562;8.856;2022-08-02T06:49:40;26.40;91.30
51021;DHT22;38907;45.562;8.856;2022-08-02T06:54:47;26.50;91.10
51021;DHT22;38907;45.562;8.856;2022-08-02T06:59:49;26.70;91.40
51021;DHT22;38907;45.562;8.856;2022-08-02T07:04:53;26.60;90.90
51021;DHT22;38907;45.562;8.856;2022-08-02T07:09:56;26.30;91.00
51021;DHT22;38907;45.562;8.856;2022-08-02T07:15:03;26.70;90.90
51021;DHT22;38907;45.562;8.856;2022-08-02T07:20:08;26.50;90.90
51021;DHT22;38907;45.562;8.856;2022-08-02T07:25:11;26.50;90.90
51021;DHT22;38907;45.562;8.856;2022-08-02T07:30:14;26.50;90.50
51021;DHT22;38907;45.562;8.856;2022-08-02T07:35:18;26.50;90.70
51021;DHT22;38907;45.562;8.856;2022-08-02T07:40:23;26.70;90.70
51021;DHT22;38907;45.562;8.856;2022-08-02T07:45:26;27.10;89.40
51021;DHT22;38907;45.562;8.856;2022-08-02T07:50:31;27.00;89.70
51021;DHT22;38907;45.562;8.856;2022-08-02T07:55:34;27.50;89.10
51021;DHT22;38907;45.562;8.856;2022-08-02T08:00:36;27.60;88.60
51021;DHT22;38907;45.562;8.856;2022-08-02T08:05:41;27.80;87.20
51021;DHT22;38907;45.562;8.856;2022-08-02T08:10:44;27.50;87.60
51021;DHT22;38907;45.562;8.856;2022-08-02T08:15:46;27.50;87.00
51021;DHT22;38907;45.562;8.856;2022-08-02T08:20:50;27.40;87.20
51021;DHT22;38907;45.562;8.856;2022-08-02T08:25:53;27.70;87.60
51021;DHT22;38907;45.562;8.856;2022-08-02T08:30:56;27.40;86.90
51021;DHT22;38907;45.562;8.856;2022-08-02T08:36:00;27.40;86.40
51021;DHT22;38907;45.562;8.856;2022-08-02T08:41:04;27.60;86.10
51021;DHT22;38907;45.562;8.856;2022-08-02T08:46:08;28.00;85.90
51021;DHT22;38907;45.562;8.856;2022-08-02T08:51:15;28.00;85.70
51021;DHT22;38907;45.562;8.856;2022-08-02T08:56:23;28.20;84.80
51021;DHT22;38907;45.562;8.856;2022-08-02T09:01:28;28.20;84.80
51021;DHT22;38907;45.562;8.856;2022-08-02T09:06:32;28.30;84.70
51021;DHT22;38907;45.562;8.856;2022-08-02T09:11:35;28.30;84.10
51021;DHT22;38907;45.562;8.856;2022-08-02T09:16:39;27.70;85.70
51021;DHT22;38907;45.562;8.856;2022-08-02T09:21:44;28.10;84.80
51021;DHT22;38907;45.562;8.856;2022-08-02T09:26:48;28.70;84.30
51021;DHT22;38907;45.562;8.856;2022-08-02T09:31:52;28.50;83.30
51021;DHT22;38907;45.562;8.856;2022-08-02T09:37:04;28.30;83.30
51021;DHT22;38907;45.562;8.856;2022-08-02T09:42:22;28.50;84.00
51021;DHT22;38907;45.562;8.856;2022-08-02T09:47:26;28.90;83.20
51021;DHT22;38907;45.562;8.856;2022-08-02T09:52:31;28.90;82.30
51021;DHT22;38907;45.562;8.856;2022-08-02T09:57:34;28.90;82.70
51021;DHT22;38907;45.562;8.856;2022-08-02T10:02:38;29.30;81.70
51021;DHT22;38907;45.562;8.856;2022-08-02T10:07:42;29.20;81.10
51021;DHT22;38907;45.562;8.856;2022-08-02T10:12:45;29.30;81.30
51021;DHT22;38907;45.562;8.856;2022-08-02T10:17:47;29.50;80.40
51021;DHT22;38907;45.562;8.856;2022-08-02T10:22:53;29.60;80.00
51021;DHT22;38907;45.562;8.856;2022-08-02T10:27:57;29.70;79.60
51021;DHT22;38907;45.562;8.856;2022-08-02T10:33:00;29.80;78.70
51021;DHT22;38907;45.562;8.856;2022-08-02T10:38:08;30.00;78.10
51021;DHT22;38907;45.562;8.856;2022-08-02T10:43:14;30.20;78.10
51021;DHT22;38907;45.562;8.856;2022-08-02T10:49:01;30.00;77.90
51021;DHT22;38907;45.562;8.856;2022-08-02T10:54:17;30.40;76.80
51021;DHT22;38907;45.562;8.856;2022-08-02T10:59:25;30.30;76.50
51021;DHT22;38907;45.562;8.856;2022-08-02T11:04:29;30.50;76.70
51021;DHT22;38907;45.562;8.856;2022-08-02T11:09:34;30.60;75.70
51021;DHT22;38907;45.562;8.856;2022-08-02T11:14:38;30.50;75.50
51021;DHT22;38907;45.562;8.856;2022-08-02T11:20:15;30.10;75.10
51021;DHT22;38907;45.562;8.856;2022-08-02T11:25:32;30.50;75.80
51021;DHT22;38907;45.562;8.856;2022-08-02T11:30:36;30.90;76.20
51021;DHT22;38907;45.562;8.856;2022-08-02T11:35:39;31.00;75.60
51021;DHT22;38907;45.562;8.856;2022-08-02T11:40:44;30.80;75.30
51021;DHT22;38907;45.562;8.856;2022-08-02T11:45:47;30.70;73.40
51021;DHT22;38907;45.562;8.856;2022-08-02T11:51:02;30.50;73.60
51021;DHT22;38907;45.562;8.856;2022-08-02T11:56:06;30.80;74.70
51021;DHT22;38907;45.562;8.856;2022-08-02T12:01:09;30.80;73.80
51021;DHT22;38907;45.562;8.856;2022-08-02T12:06:12;31.20;74.70
51021;DHT22;38907;45.562;8.856;2022-08-02T12:11:19;31.20;73.60
51021;DHT22;38907;45.562;8.856;2022-08-02T12:16:22;31.10;73.50
51021;DHT22;38907;45.562;8.856;2022-08-02T12:21:42;31.10;72.70
51021;DHT22;38907;45.562;8.856;2022-08-02T12:26:47;31.00;73.40
51021;DHT22;38907;45.562;8.856;2022-08-02T12:31:49;31.20;73.70
51021;DHT22;38907;45.562;8.856;2022-08-02T12:37:03;31.20;74.00
51021;DHT22;38907;45.562;8.856;2022-08-02T12:42:10;31.60;74.00
51021;DHT22;38907;45.562;8.856;2022-08-02T12:47:12;31.70;72.90
51021;DHT22;38907;45.562;8.856;2022-08-02T12:52:20;31.90;73.50
51021;DHT22;38907;45.562;8.856;2022-08-02T12:57:24;31.60;74.20
51021;DHT22;38907;45.562;8.856;2022-08-02T13:02:27;31.70;74.20
51021;DHT22;38907;45.562;8.856;2022-08-02T13:07:29;31.40;72.90
51021;DHT22;38907;45.562;8.856;2022-08-02T13:12:36;31.50;72.40
51021;DHT22;38907;45.562;8.856;2022-08-02T13:17:39;31.50;72.80
51021;DHT22;38907;45.562;8.856;2022-08-02T13:22:42;31.50;72.20
51021;DHT22;38907;45.562;8.856;2022-08-02T13:27:46;31.70;73.50
51021;DHT22;38907;45.562;8.856;2022-08-02T13:32:49;31.90;72.60
51021;DHT22;38907;45.562;8.856;2022-08-02T13:37:52;31.50;72.90
51021;DHT22;38907;45.562;8.856;2022-08-02T13:42:56;31.90;74.00
51021;DHT22;38907;45.562;8.856;2022-08-02T13:47:59;32.00;72.30
51021;DHT22;38907;45.562;8.856;2022-08-02T13:53:01;32.20;72.80
51021;DHT22;38907;45.562;8.856;2022-08-02T13:58:05;32.00;71.70
51021;DHT22;38907;45.562;8.856;2022-08-02T14:03:09;31.90;72.90
51021;DHT22;38907;45.562;8.856;2022-08-02T14:08:12;32.20;73.10
51021;DHT22;38907;45.562;8.856;2022-08-02T14:13:16;32.30;72.00
51021;DHT22;38907;45.562;8.856;2022-08-02T14:18:18;32.40;72.00
51021;DHT22;38907;45.562;8.856;2022-08-02T14:23:21;32.30;73.00
51021;DHT22;38907;45.562;8.856;2022-08-02T14:28:26;32.40;73.30
51021;DHT22;38907;45.562;8.856;2022-08-02T14:33:28;32.30;71.40
51021;DHT22;38907;45.562;8.856;2022-08-02T14:38:31;32.50;73.30
51021;DHT22;38907;45.562;8.856;2022-08-02T14:43:36;32.50;72.80
51021;DHT22;38907;45.562;8.856;2022-08-02T14:48:56;32.60;73.10
51021;DHT22;38907;45.562;8.856;2022-08-02T14:54:04;32.70;72.70
51021;DHT22;38907;45.562;8.856;2022-08-02T14:59:09;32.70;72.60
51021;DHT22;38907;45.562;8.856;2022-08-02T15:04:12;32.80;72.20
51021;DHT22;38907;45.562;8.856;2022-08-02T15:09:15;32.70;72.70
51021;DHT22;38907;45.562;8.856;2022-08-02T15:14:20;32.50;72.60
51021;DHT22;38907;45.562;8.856;2022-08-02T15:19:23;32.60;73.70
51021;DHT22;38907;45.562;8.856;2022-08-02T15:24:26;32.70;73.60
51021;DHT22;38907;45.562;8.856;2022-08-02T15:29:30;33.00;73.00
51021;DHT22;38907;45.562;8.856;2022-08-02T15:34:32;32.90;72.00
51021;DHT22;38907;45.562;8.856;2022-08-02T15:39:35;33.00;72.30
51021;DHT22;38907;45.562;8.856;2022-08-02T15:44:39;33.20;72.50
51021;DHT22;38907;45.562;8.856;2022-08-02T15:49:45;33.30;72.80
51021;DHT22;38907;45.562;8.856;2022-08-02T15:54:48;33.30;72.50
51021;DHT22;38907;45.562;8.856;2022-08-02T15:59:52;33.30;72.90
51021;DHT22;38907;45.562;8.856;2022-08-02T16:04:55;33.00;72.70
51021;DHT22;38907;45.562;8.856;2022-08-02T16:09:57;33.10;72.60
51021;DHT22;38907;45.562;8.856;2022-08-02T16:15:01;32.90;73.50
51021;DHT22;38907;45.562;8.856;2022-08-02T16:20:04;33.10;73.30
51021;DHT22;38907;45.562;8.856;2022-08-02T16:25:08;33.30;73.00
51021;DHT22;38907;45.562;8.856;2022-08-02T16:30:12;33.10;72.60
51021;DHT22;38907;45.562;8.856;2022-08-02T16:35:15;33.10;72.50
51021;DHT22;38907;45.562;8.856;2022-08-02T16:40:18;32.80;72.70
51021;DHT22;38907;45.562;8.856;2022-08-02T16:45:22;32.90;73.00
51021;DHT22;38907;45.562;8.856;2022-08-02T16:50:25;32.90;72.80
51021;DHT22;38907;45.562;8.856;2022-08-02T16:55:29;32.80;72.90
51021;DHT22;38907;45.562;8.856;2022-08-02T17:00:34;32.60;72.60
51021;DHT22;38907;45.562;8.856;2022-08-02T17:05:36;32.40;73.00
51021;DHT22;38907;45.562;8.856;2022-08-02T17:10:40;32.20;72.90
51021;DHT22;38907;45.562;8.856;2022-08-02T17:15:45;32.00;73.30
51021;DHT22;38907;45.562;8.856;2022-08-02T17:20:47;31.90;73.80
51021;DHT22;38907;45.562;8.856;2022-08-02T17:25:50;31.90;74.40
51021;DHT22;38907;45.562;8.856;2022-08-02T17:30:54;31.80;75.10
51021;DHT22;38907;45.562;8.856;2022-08-02T17:35:56;31.70;76.10
51021;DHT22;38907;45.562;8.856;2022-08-02T17:40:59;31.60;76.70
51021;DHT22;38907;45.562;8.856;2022-08-02T17:46:03;31.50;77.20
51021;DHT22;38907;45.562;8.856;2022-08-02T17:51:06;31.40;77.40
51021;DHT22;38907;45.562;8.856;2022-08-02T17:56:09;31.30;77.60
51021;DHT22;38907;45.562;8.856;2022-08-02T18:01:13;31.30;77.90
51021;DHT22;38907;45.562;8.856;2022-08-02T18:06:16;31.30;78.40
51021;DHT22;38907;45.562;8.856;2022-08-02T18:11:18;31.20;78.10
51021;DHT22;38907;45.562;8.856;2022-08-02T18:16:23;31.20;78.30
51021;DHT22;38907;45.562;8.856;2022-08-02T18:21:26;31.10;78.40
51021;DHT22;38907;45.562;8.856;2022-08-02T18:26:29;31.00;78.70
51021;DHT22;38907;45.562;8.856;2022-08-02T18:31:33;30.90;78.90
51021;DHT22;38907;45.562;8.856;2022-08-02T18:36:36;30.80;79.60
51021;DHT22;38907;45.562;8.856;2022-08-02T18:41:39;30.70;79.70
51021;DHT22;38907;45.562;8.856;2022-08-02T18:46:45;30.70;79.70
51021;DHT22;38907;45.562;8.856;2022-08-02T18:51:48;30.60;80.10
51021;DHT22;38907;45.562;8.856;2022-08-02T18:56:51;30.50;80.00
51021;DHT22;38907;45.562;8.856;2022-08-02T19:01:55;30.40;80.60
51021;DHT22;38907;45.562;8.856;2022-08-02T19:06:58;30.30;81.00
51021;DHT22;38907;45.562;8.856;2022-08-02T19:12:01;30.30;81.60
51021;DHT22;38907;45.562;8.856;2022-08-02T19:17:05;30.10;81.70
51021;DHT22;38907;45.562;8.856;2022-08-02T19:22:08;30.00;82.50
51021;DHT22;38907;45.562;8.856;2022-08-02T19:27:11;29.90;82.60
51021;DHT22;38907;45.562;8.856;2022-08-02T19:32:15;29.90;82.60
51021;DHT22;38907;45.562;8.856;2022-08-02T19:37:18;29.70;82.90
51021;DHT22;38907;45.562;8.856;2022-08-02T19:42:21;29.60;83.30
51021;DHT22;38907;45.562;8.856;2022-08-02T19:47:25;29.60;83.30
51021;DHT22;38907;45.562;8.856;2022-08-02T19:52:28;29.50;83.70
51021;DHT22;38907;45.562;8.856;2022-08-02T19:57:30;29.50;84.00
51021;DHT22;38907;45.562;8.856;2022-08-02T20:02:35;29.40;84.20
51021;DHT22;38907;45.562;8.856;2022-08-02T20:07:38;29.40;85.50
51021;DHT22;38907;45.562;8.856;2022-08-02T20:12:45;29.30;86.00
51021;DHT22;38907;45.562;8.856;2022-08-02T20:17:49;29.20;85.90
51021;DHT22;38907;45.562;8.856;2022-08-02T20:22:51;29.10;86.50
51021;DHT22;38907;45.562;8.856;2022-08-02T20:28:11;28.90;87.70
51021;DHT22;38907;45.562;8.856;2022-08-02T20:33:16;28.70;88.10
51021;DHT22;38907;45.562;8.856;2022-08-02T20:38:19;28.60;88.60
51021;DHT22;38907;45.562;8.856;2022-08-02T20:43:22;28.60;88.30
51021;DHT22;38907;45.562;8.856;2022-08-02T20:48:26;28.60;88.10
51021;DHT22;38907;45.562;8.856;2022-08-02T20:53:29;28.60;87.90
51021;DHT22;38907;45.562;8.856;2022-08-02T20:58:32;28.60;87.30
51021;DHT22;38907;45.562;8.856;2022-08-02T21:03:37;28.70;85.30
51021;DHT22;38907;45.562;8.856;2022-08-02T21:08:40;28.80;84.90
51021;DHT22;38907;45.562;8.856;2022-08-02T21:13:43;28.80;85.30
51021;DHT22;38907;45.562;8.856;2022-08-02T21:18:47;28.60;88.70
51021;DHT22;38907;45.562;8.856;2022-08-02T21:23:51;28.30;89.50
51021;DHT22;38907;45.562;8.856;2022-08-02T21:28:54;28.10;89.70
51021;DHT22;38907;45.562;8.856;2022-08-02T21:33:58;28.00;89.60
51021;DHT22;38907;45.562;8.856;2022-08-02T21:39:01;28.00;90.20
51021;DHT22;38907;45.562;8.856;2022-08-02T21:44:04;27.90;90.40
51021;DHT22;38907;45.562;8.856;2022-08-02T21:49:09;27.90;90.70
51021;DHT22;38907;45.562;8.856;2022-08-02T21:54:12;27.90;90.70
51021;DHT22;38907;45.562;8.856;2022-08-02T21:59:14;28.00;90.60
51021;DHT22;38907;45.562;8.856;2022-08-02T22:04:19;28.10;89.10
51021;DHT22;38907;45.562;8.856;2022-08-02T22:09:22;28.10;88.30
51021;DHT22;38907;45.562;8.856;2022-08-02T22:14:25;28.20;88.10
51021;DHT22;38907;45.562;8.856;2022-08-02T22:19:29;28.10;87.50
51021;DHT22;38907;45.562;8.856;2022-08-02T22:24:32;28.10;87.80
51021;DHT22;38907;45.562;8.856;2022-08-02T22:29:34;28.10;87.60
51021;DHT22;38907;45.562;8.856;2022-08-02T22:34:38;28.00;88.30
51021;DHT22;38907;45.562;8.856;2022-08-02T22:39:43;27.90;87.10
51021;DHT22;38907;45.562;8.856;2022-08-02T22:44:46;27.90;87.30
51021;DHT22;38907;45.562;8.856;2022-08-02T22:49:50;27.80;86.80
51021;DHT22;38907;45.562;8.856;2022-08-02T22:54:52;27.90;86.70
51021;DHT22;38907;45.562;8.856;2022-08-02T22:59:55;27.80;88.00
51021;DHT22;38907;45.562;8.856;2022-08-02T23:04:59;27.50;88.90
51021;DHT22;38907;45.562;8.856;2022-08-02T23:10:02;27.40;89.50
51021;DHT22;38907;45.562;8.856;2022-08-02T23:15:07;27.30;89.50
51021;DHT22;38907;45.562;8.856;2022-08-02T23:20:12;27.20;89.60
51021;DHT22;38907;45.562;8.856;2022-08-02T23:25:14;27.30;89.30
51021;DHT22;38907;45.562;8.856;2022-08-02T23:30:17;27.10;89.70
51021;DHT22;38907;45.562;8.856;2022-08-02T23:35:22;27.00;90.10
51021;DHT22;38907;45.562;8.856;2022-08-02T23:40:24;27.00;90.20
51021;DHT22;38907;45.562;8.856;2022-08-02T23:45:27;26.90;90.40
51021;DHT22;38907;45.562;8.856;2022-08-02T23:50:31;26.90;90.30
51021;DHT22;38907;45.562;8.856;2022-08-02T23:55:33;26.90;90.50
